Time;durP1;ratioP1;P1;durP2;ratioP2;P2;SDS_P1;SDS_P2;PMS_P1;PMS_P2;Temp;Humidity;BMP_temperature;BMP_pressure;BME280_temperature;BME280_humidity;BME280_pressure;Samples;Min_cycle;Max_cycle;Signal;HPM_P1;HPM_P2
2023/08/27 00:01:51;;;;;;;12.30;11.30;;;;;;;16.60;91.51;97495.69;5030681;28;20487;-71
2023/08/27 00:04:17;;;;;;;11.10;10.20;;;;;;;16.51;91.82;97494.50;5034893;28;20487;-71
2023/08/27 00:06:44;;;;;;;8.90;8.20;;;;;;;16.54;91.75;97482.25;5029976;28;20449;-71
2023/08/27 00:09:11;;;;;;;9.97;9.27;;;;;;;16.59;91.52;97480.38;5029938;28;20490;-71
2023/08/27 00:11:39;;;;;;;10.00;9.30;;;;;;;16.44;92.38;97455.59;5030692;28;20497;-71
2023/08/27 00:14:06;;;;;;;10.67;9.90;;;;;;;16.52;91.75;97446.97;5033502;28;20559;-71
2023/08/27 00:16:33;;;;;;;12.10;10.93;;;;;;;16.30;92.45;97435.19;5031893;28;20988;-71
2023/08/27 00:19:00;;;;;;;9.67;8.90;;;;;;;16.24;93.01;97425.31;5037385;28;20454;-71
2023/08/27 00:21:27;;;;;;;11.10;10.00;;;;;;;16.32;92.12;97417.47;5036258;28;20479;-71
2023/08/27 00:23:53;;;;;;;9.97;9.20;;;;;;;16.40;92.15;97429.88;5037657;28;21033;-71
2023/08/27 00:26:20;;;;;;;9.20;8.50;;;;;;;16.54;91.78;97422.13;5033150;28;20505;-71
2023/08/27 00:28:48;;;;;;;9.20;8.47;;;;;;;16.57;91.53;97414.22;5033788;28;21125;-71
2023/08/27 00:31:15;;;;;;;8.47;7.77;;;;;;;16.57;91.60;97419.69;5033260;28;20494;-70
2023/08/27 00:33:42;;;;;;;8.43;7.77;;;;;;;16.62;91.15;97436.16;5033730;28;20916;-72
2023/08/27 00:36:09;;;;;;;8.50;7.90;;;;;;;16.55;91.27;97451.94;5037585;28;20444;-71
2023/08/27 00:38:37;;;;;;;8.10;7.50;;;;;;;16.71;90.78;97472.09;5032369;28;20543;-71
2023/08/27 00:41:03;;;;;;;9.80;8.90;;;;;;;16.71;90.48;97472.91;5032379;28;20936;-71
2023/08/27 00:43:30;;;;;;;9.70;7.83;;;;;;;16.87;89.84;97473.09;5034325;28;20499;-71
2023/08/27 00:45:58;;;;;;;9.43;8.63;;;;;;;16.93;89.58;97470.13;5034562;28;20539;-71
2023/08/27 00:48:25;;;;;;;7.93;7.13;;;;;;;16.95;89.00;97467.97;5032725;28;20455;-71
2023/08/27 00:50:52;;;;;;;8.40;7.77;;;;;;;17.02;88.85;97482.28;5033334;28;20464;-71
2023/08/27 00:53:19;;;;;;;9.10;8.30;;;;;;;17.02;88.78;97486.91;5032723;28;20578;-71
2023/08/27 00:55:46;;;;;;;8.07;7.33;;;;;;;17.05;88.52;97502.81;5038103;28;20452;-71
2023/08/27 00:58:13;;;;;;;8.70;8.00;;;;;;;16.74;89.96;97510.66;5034310;28;20452;-71
2023/08/27 01:00:40;;;;;;;9.17;8.33;;;;;;;16.87;89.57;97503.16;5032684;28;20965;-71
2023/08/27 01:03:08;;;;;;;9.60;8.80;;;;;;;17.01;89.13;97515.34;5034117;28;20552;-71
2023/08/27 01:05:35;;;;;;;10.90;10.10;;;;;;;16.97;89.23;97509.56;5032557;28;20539;-71
2023/08/27 01:08:08;;;;;;;9.97;9.27;;;;;;;17.04;89.10;97498.44;5034701;28;20608;-71
2023/08/27 01:10:41;;;;;;;8.93;8.20;;;;;;;16.99;89.47;97496.47;5033374;28;20529;-71
2023/08/27 01:13:11;;;;;;;10.10;9.20;;;;;;;16.97;89.63;97495.06;5036604;28;20548;-71
2023/08/27 01:15:38;;;;;;;11.20;10.30;;;;;;;16.78;89.87;97489.13;5034765;28;20533;-71
2023/08/27 01:18:05;;;;;;;9.90;9.20;;;;;;;16.54;91.61;97477.59;5033535;28;20490;-71
2023/08/27 01:20:34;;;;;;;12.83;11.73;;;;;;;16.43;92.04;97473.06;5032461;28;20976;-71
2023/08/27 01:23:02;;;;;;;13.47;12.17;;;;;;;16.48;92.24;97456.75;5034158;28;20578;-72
2023/08/27 01:25:33;;;;;;;11.40;10.50;;;;;;;16.45;92.41;97460.00;5030990;28;20535;-71
2023/08/27 01:28:11;;;;;;;10.20;9.20;;;;;;;16.58;91.83;97462.31;5032026;28;20968;-71
2023/08/27 01:30:41;;;;;;;10.37;9.47;;;;;;;16.59;91.71;97465.88;5035177;28;20451;-71
2023/08/27 01:33:12;;;;;;;10.30;9.40;;;;;;;16.57;91.42;97476.28;5032943;28;20575;-71
2023/08/27 01:35:40;;;;;;;10.03;9.23;;;;;;;16.57;91.22;97454.41;5042592;28;20455;-72
2023/08/27 01:38:08;;;;;;;11.50;10.50;;;;;;;16.67;91.49;97476.41;5034135;28;20460;-71
2023/08/27 01:40:37;;;;;;;10.17;9.37;;;;;;;16.76;90.81;97472.97;5033756;28;20547;-71
2023/08/27 01:43:04;;;;;;;10.80;9.90;;;;;;;16.79;90.93;97472.47;5033148;28;20506;-71
2023/08/27 01:45:30;;;;;;;9.40;8.67;;;;;;;16.89;90.45;97468.22;5032007;28;20459;-71
2023/08/27 01:47:58;;;;;;;9.10;8.30;;;;;;;16.94;90.48;97473.69;5031998;28;20462;-71
2023/08/27 01:50:24;;;;;;;8.80;8.00;;;;;;;16.85;90.73;97461.59;5030888;28;20494;-71
2023/08/27 01:52:51;;;;;;;8.50;7.80;;;;;;;16.92;90.77;97445.78;5031562;28;20482;-71
2023/08/27 01:55:19;;;;;;;8.57;7.90;;;;;;;16.87;91.39;97445.75;5035819;28;20991;-71
2023/08/27 01:57:45;;;;;;;8.33;7.43;;;;;;;17.00;90.76;97431.66;5032876;28;20511;-71
2023/08/27 02:00:16;;;;;;;8.80;8.00;;;;;;;17.09;89.78;97430.94;5031926;28;20452;-71
2023/08/27 02:02:43;;;;;;;8.17;7.47;;;;;;;16.98;90.15;97428.38;5031954;28;20236;-71
2023/08/27 02:05:10;;;;;;;9.47;8.83;;;;;;;17.07;89.84;97429.56;5035326;28;21078;-71
2023/08/27 02:07:38;;;;;;;8.57;7.87;;;;;;;16.89;90.76;97446.34;5032159;28;20534;-71
2023/08/27 02:10:05;;;;;;;9.87;7.93;;;;;;;16.96;90.01;97445.03;5033343;28;20850;-71
2023/08/27 02:12:33;;;;;;;8.33;7.73;;;;;;;17.13;89.75;97443.03;5035088;28;20476;-71
2023/08/27 02:15:00;;;;;;;7.97;7.37;;;;;;;17.07;89.58;97429.56;5034559;28;20563;-71
2023/08/27 02:17:27;;;;;;;8.43;7.80;;;;;;;16.99;90.02;97424.53;5032716;28;21133;-71
2023/08/27 02:19:53;;;;;;;10.10;9.23;;;;;;;17.03;90.06;97420.22;5034858;28;20455;-71
2023/08/27 02:22:20;;;;;;;9.83;9.13;;;;;;;16.86;91.00;97419.50;5032890;28;20574;-71
2023/08/27 02:24:47;;;;;;;8.80;8.00;;;;;;;16.95;90.91;97431.63;5040325;28;20455;-71
2023/08/27 02:27:14;;;;;;;9.03;8.33;;;;;;;17.01;90.54;97433.31;5031660;28;20452;-71
2023/08/27 02:29:42;;;;;;;8.70;8.00;;;;;;;17.21;89.74;97432.72;5033649;28;20476;-71
2023/08/27 02:32:09;;;;;;;9.67;8.40;;;;;;;17.06;90.05;97442.41;5038419;28;20475;-71
2023/08/27 02:34:36;;;;;;;9.20;8.50;;;;;;;17.08;90.06;97442.97;5031300;28;20512;-71
2023/08/27 02:37:03;;;;;;;9.63;8.70;;;;;;;17.06;90.01;97445.13;5030850;28;20894;-71
2023/08/27 02:39:30;;;;;;;9.00;8.37;;;;;;;17.01;90.37;97442.34;5031435;28;20559;-71
2023/08/27 02:41:56;;;;;;;9.63;8.90;;;;;;;16.85;90.94;97432.34;5029812;28;20460;-71
2023/08/27 02:44:23;;;;;;;8.60;7.87;;;;;;;16.87;91.55;97427.47;5032950;28;20462;-71
2023/08/27 02:46:51;;;;;;;13.10;11.90;;;;;;;16.76;91.55;97437.44;5036367;28;20550;-71
2023/08/27 02:49:18;;;;;;;9.17;8.50;;;;;;;16.49;93.35;97436.56;5033930;28;20483;-71
2023/08/27 02:51:45;;;;;;;11.93;10.93;;;;;;;16.62;92.71;97458.00;5031281;28;20458;-70
2023/08/27 02:54:11;;;;;;;13.37;12.30;;;;;;;16.47;93.20;97457.84;5031732;28;20495;-71
2023/08/27 02:56:38;;;;;;;9.87;9.17;;;;;;;16.51;93.70;97461.72;5035572;28;20487;-71
2023/08/27 02:59:05;;;;;;;12.60;11.60;;;;;;;16.50;93.59;97456.50;5031812;28;21404;-71
2023/08/27 03:01:32;;;;;;;13.03;11.87;;;;;;;16.57;93.41;97451.69;5031910;28;20452;-71
2023/08/27 03:04:00;;;;;;;15.00;13.80;;;;;;;16.51;92.95;97439.84;5030941;28;20500;-71
2023/08/27 03:06:27;;;;;;;14.60;13.43;;;;;;;16.53;93.39;97442.34;5033188;28;20551;-71
2023/08/27 03:08:54;;;;;;;15.00;13.87;;;;;;;16.50;93.42;97443.66;5033587;28;20483;-71
2023/08/27 03:11:20;;;;;;;15.50;14.17;;;;;;;16.25;94.48;97441.41;5030209;28;20459;-71
2023/08/27 03:13:48;;;;;;;18.93;17.23;;;;;;;16.36;94.71;97436.94;5040344;28;20483;-71
2023/08/27 03:16:15;;;;;;;15.00;13.90;;;;;;;16.31;94.93;97445.88;5033179;28;20455;-72
2023/08/27 03:18:42;;;;;;;15.00;13.80;;;;;;;16.34;95.15;97444.53;5033836;28;20455;-71
2023/08/27 03:21:10;;;;;;;17.70;16.33;;;;;;;16.39;94.92;97431.78;5037741;28;20859;-72
2023/08/27 03:23:37;;;;;;;18.20;16.73;;;;;;;16.39;94.74;97428.22;5036631;28;20495;-72
2023/08/27 03:26:04;;;;;;;20.97;19.20;;;;;;;16.28;94.95;97416.34;5033435;28;20459;-72
2023/08/27 03:28:30;;;;;;;22.23;20.13;;;;;;;16.03;95.87;97405.91;5029512;28;20562;-72
2023/08/27 03:30:57;;;;;;;22.63;20.37;;;;;;;15.98;96.53;97396.84;5031085;28;20543;-72
2023/08/27 03:33:24;;;;;;;19.73;18.07;;;;;;;16.15;96.69;97391.34;5032498;28;20547;-71
2023/08/27 03:35:51;;;;;;;17.07;15.77;;;;;;;16.13;96.70;97394.31;5033106;28;20508;-72
2023/08/27 03:38:20;;;;;;;20.60;18.90;;;;;;;16.15;96.63;97396.78;5030000;28;20491;-72
2023/08/27 03:40:50;;;;;;;17.47;15.93;;;;;;;16.14;97.07;97404.16;5030918;28;20544;-72
2023/08/27 03:43:17;;;;;;;18.77;17.13;;;;;;;16.19;96.54;97398.78;5031140;28;21032;-72
2023/08/27 03:45:44;;;;;;;19.17;17.57;;;;;;;16.20;96.36;97399.59;5032351;28;20551;-72
2023/08/27 03:48:11;;;;;;;16.30;15.10;;;;;;;16.31;96.26;97401.34;5036029;28;20494;-72
2023/08/27 03:50:38;;;;;;;20.70;19.07;;;;;;;16.16;96.36;97406.63;5030313;28;20547;-72
2023/08/27 03:53:05;;;;;;;19.53;17.83;;;;;;;16.07;97.29;97412.53;5031073;28;20574;-72
2023/08/27 03:55:38;;;;;;;23.13;20.73;;;;;;;16.18;97.17;97413.50;5041337;28;20558;-72
2023/08/27 03:58:06;;;;;;;20.87;19.23;;;;;;;16.35;96.77;97410.69;5035930;28;20846;-72
2023/08/27 04:00:33;;;;;;;19.93;18.37;;;;;;;16.29;96.48;97409.78;5035008;28;20472;-72
2023/08/27 04:03:00;;;;;;;21.80;19.90;;;;;;;16.43;96.37;97377.47;5034299;28;20510;-72
2023/08/27 04:05:27;;;;;;;20.07;18.47;;;;;;;16.38;96.42;97374.69;5035820;28;20555;-72
2023/08/27 04:07:53;;;;;;;22.73;20.73;;;;;;;16.55;95.86;97374.63;5034429;28;20452;-72
2023/08/27 04:10:20;;;;;;;19.20;17.67;;;;;;;16.51;96.04;97379.75;5043093;28;20958;-72
2023/08/27 04:12:49;;;;;;;21.57;19.33;;;;;;;16.60;95.43;97380.94;5033828;28;20571;-71
2023/08/27 04:15:15;;;;;;;18.43;16.90;;;;;;;16.55;95.47;97385.53;5033664;28;20860;-72
2023/08/27 04:17:42;;;;;;;25.97;23.50;;;;;;;16.57;95.35;97381.44;5035200;28;20519;-72
2023/08/27 04:20:10;;;;;;;22.30;20.33;;;;;;;16.45;95.74;97380.78;5035105;28;20888;-72
2023/08/27 04:22:37;;;;;;;23.63;21.43;;;;;;;16.57;95.41;97386.91;5034003;28;20468;-72
2023/08/27 04:25:04;;;;;;;26.90;24.20;;;;;;;16.45;95.72;97389.78;5031611;28;20826;-72
2023/08/27 04:27:31;;;;;;;24.77;22.47;;;;;;;16.47;95.85;97389.53;5037670;28;20459;-72
2023/08/27 04:29:59;;;;;;;30.10;26.87;;;;;;;16.34;96.27;97384.47;5033521;28;20452;-72
2023/08/27 04:32:26;;;;;;;22.20;20.00;;;;;;;16.43;96.72;97386.50;5032760;28;20501;-72
2023/08/27 04:34:54;;;;;;;26.53;24.03;;;;;;;16.25;97.16;97380.53;5034085;28;20459;-72
2023/08/27 04:37:20;;;;;;;27.97;25.27;;;;;;;16.15;97.70;97364.84;5034647;28;20448;-74
2023/08/27 04:39:47;;;;;;;33.23;28.77;;;;;;;16.32;97.08;97343.75;5033584;28;20485;-72
2023/08/27 04:42:14;;;;;;;27.17;24.43;;;;;;;16.20;97.83;97318.50;5033391;28;20479;-72
2023/08/27 04:44:40;;;;;;;24.03;21.80;;;;;;;16.24;97.73;97325.13;5035303;28;20483;-72
2023/08/27 04:47:09;;;;;;;22.17;20.17;;;;;;;16.22;98.03;97348.28;5034074;28;20483;-73
2023/08/27 04:49:36;;;;;;;26.37;23.83;;;;;;;16.24;98.26;97348.88;5033888;28;20488;-72
2023/08/27 04:52:03;;;;;;;22.97;21.00;;;;;;;16.52;97.96;97351.34;5033332;28;20487;-72
2023/08/27 04:54:30;;;;;;;27.83;25.07;;;;;;;16.54;97.60;97353.84;5034746;28;20894;-72
2023/08/27 04:56:57;;;;;;;31.17;27.97;;;;;;;16.57;96.64;97366.97;5039501;28;21002;-72
2023/08/27 04:59:24;;;;;;;30.90;27.90;;;;;;;16.48;96.79;97369.34;5032110;28;20463;-72
2023/08/27 05:01:54;;;;;;;27.33;24.73;;;;;;;16.40;97.46;97369.78;5033717;28;20521;-71
2023/08/27 05:04:23;;;;;;;22.30;20.30;;;;;;;16.59;97.15;97362.88;5032957;28;20562;-72
2023/08/27 05:06:49;;;;;;;24.00;21.93;;;;;;;16.43;97.48;97372.00;5031829;28;20521;-72
2023/08/27 05:09:16;;;;;;;24.63;22.50;;;;;;;16.57;97.19;97372.44;5032628;28;20463;-72
2023/08/27 05:11:43;;;;;;;25.00;22.83;;;;;;;16.70;96.61;97374.78;5033181;28;20506;-72
2023/08/27 05:14:10;;;;;;;21.43;19.40;;;;;;;16.66;96.40;97377.22;5033181;28;20455;-72
2023/08/27 05:16:37;;;;;;;27.40;24.80;;;;;;;16.64;96.98;97379.38;5030690;28;20495;-72
2023/08/27 05:19:04;;;;;;;28.70;25.87;;;;;;;16.63;96.85;97368.66;5034257;28;20463;-72
2023/08/27 05:21:32;;;;;;;25.70;23.20;;;;;;;16.59;96.97;97365.63;5031976;28;20501;-72
2023/08/27 05:23:58;;;;;;;21.07;19.37;;;;;;;16.60;97.07;97375.47;5032489;28;20487;-73
2023/08/27 05:26:25;;;;;;;23.57;21.57;;;;;;;16.76;96.28;97393.72;5030402;28;20535;-72
2023/08/27 05:28:52;;;;;;;20.23;18.53;;;;;;;16.66;96.47;97390.88;5031252;28;20463;-72
2023/08/27 05:31:19;;;;;;;25.13;22.83;;;;;;;16.59;97.46;97390.22;5030489;28;20448;-72
2023/08/27 05:33:46;;;;;;;25.13;23.10;;;;;;;16.60;97.60;97389.13;5033578;28;20463;-71
2023/08/27 05:36:12;;;;;;;27.17;24.47;;;;;;;16.63;97.41;97383.16;5032686;28;20459;-72
2023/08/27 05:38:40;;;;;;;22.63;20.83;;;;;;;16.61;97.49;97390.78;5032430;28;20553;-72
2023/08/27 05:41:07;;;;;;;23.67;21.50;;;;;;;16.76;97.40;97399.19;5030702;28;20884;-72
2023/08/27 05:43:34;;;;;;;21.53;19.77;;;;;;;16.70;97.53;97394.75;5031508;28;20844;-72
2023/08/27 05:46:00;;;;;;;25.10;22.73;;;;;;;16.79;97.25;97392.38;5034452;28;20534;-72
2023/08/27 05:48:27;;;;;;;23.40;21.17;;;;;;;16.59;97.58;97406.59;5033455;28;20470;-72
2023/08/27 05:50:54;;;;;;;23.17;20.97;;;;;;;16.40;98.13;97406.13;5034056;28;21376;-72
2023/08/27 05:53:21;;;;;;;23.33;21.17;;;;;;;16.44;98.62;97400.97;5031558;28;20515;-72
2023/08/27 05:55:49;;;;;;;23.63;21.33;;;;;;;16.56;98.22;97406.31;5034195;28;20454;-72
2023/08/27 05:58:17;;;;;;;23.43;21.57;;;;;;;16.62;98.05;97413.47;5032253;28;20480;-72
2023/08/27 06:00:43;;;;;;;22.67;20.77;;;;;;;16.55;98.59;97419.16;5034928;28;20522;-73
2023/08/27 06:03:10;;;;;;;21.43;19.53;;;;;;;16.70;98.27;97413.88;5031992;28;20864;-72
2023/08/27 06:05:37;;;;;;;19.80;18.23;;;;;;;16.74;98.10;97408.72;5035356;28;20486;-72
2023/08/27 06:08:04;;;;;;;21.00;19.03;;;;;;;16.91;97.46;97401.22;5031401;28;20476;-72
2023/08/27 06:10:32;;;;;;;18.10;16.60;;;;;;;16.93;97.20;97398.25;5031501;28;20456;-73
2023/08/27 06:13:00;;;;;;;15.80;14.60;;;;;;;16.95;96.35;97390.59;5031226;28;20476;-71
2023/08/27 06:15:28;;;;;;;15.10;13.90;;;;;;;17.06;96.28;97384.16;5031921;28;20452;-72
2023/08/27 06:17:57;;;;;;;12.80;11.90;;;;;;;16.93;96.41;97384.56;5031825;28;20546;-71
2023/08/27 06:20:24;;;;;;;13.20;12.10;;;;;;;17.07;95.53;97372.97;5029996;28;20534;-72
2023/08/27 06:22:50;;;;;;;13.50;12.57;;;;;;;17.13;95.07;97357.44;5036363;28;20511;-70
2023/08/27 06:25:17;;;;;;;11.70;10.80;;;;;;;17.13;94.45;97360.16;5032936;28;20502;-74
2023/08/27 06:27:44;;;;;;;9.33;8.63;;;;;;;16.99;94.76;97358.94;5032380;28;20547;-74
2023/08/27 06:30:12;;;;;;;9.10;8.50;;;;;;;16.95;94.19;97355.06;5034108;28;20547;-71
2023/08/27 06:32:39;;;;;;;7.60;7.10;;;;;;;16.66;95.07;97333.47;5030810;28;21033;-71
2023/08/27 06:35:09;;;;;;;7.67;7.07;;;;;;;16.76;95.82;97346.44;5030128;28;20460;-73
2023/08/27 06:37:35;;;;;;;8.43;7.77;;;;;;;17.03;95.51;97343.66;5030318;28;21386;-71
2023/08/27 06:40:03;;;;;;;8.80;8.20;;;;;;;16.99;93.55;97354.28;5031709;28;20502;-71
2023/08/27 06:42:29;;;;;;;6.50;6.00;;;;;;;16.85;93.59;97363.19;5030411;28;20566;-71
2023/08/27 06:44:56;;;;;;;6.00;5.60;;;;;;;16.75;93.01;97383.88;5031602;28;20491;-71
2023/08/27 06:47:24;;;;;;;6.10;5.50;;;;;;;16.74;93.80;97387.69;5034577;28;20553;-71
2023/08/27 06:49:51;;;;;;;7.30;6.60;;;;;;;16.65;93.99;97397.41;5031148;28;20545;-77
2023/08/27 06:52:18;;;;;;;6.07;5.50;;;;;;;16.68;93.53;97399.63;5033909;28;20525;-73
2023/08/27 06:54:46;;;;;;;4.10;3.80;;;;;;;16.58;92.66;97406.84;5029596;28;20519;-72
2023/08/27 06:57:12;;;;;;;5.33;4.90;;;;;;;16.46;93.85;97407.00;5027301;28;20463;-71
2023/08/27 06:59:39;;;;;;;4.30;4.00;;;;;;;16.64;93.12;97419.53;5029660;28;20817;-71
2023/08/27 07:02:07;;;;;;;3.80;3.57;;;;;;;16.84;91.67;97427.97;5035314;28;21174;-71
2023/08/27 07:04:35;;;;;;;4.27;3.87;;;;;;;16.78;91.42;97432.56;5040882;28;20991;-71
2023/08/27 07:07:02;;;;;;;5.27;4.53;;;;;;;16.74;92.81;97427.84;5030074;28;20889;-71
2023/08/27 07:09:29;;;;;;;5.03;4.63;;;;;;;16.74;93.24;97416.91;5033473;28;20463;-71
2023/08/27 07:11:56;;;;;;;6.07;5.40;;;;;;;16.98;92.59;97407.31;5035384;28;20510;-71
2023/08/27 07:14:22;;;;;;;6.13;5.63;;;;;;;16.87;93.21;97402.84;5030514;28;20956;-71
2023/08/27 07:16:49;;;;;;;5.47;5.17;;;;;;;17.12;93.55;97397.63;5033556;28;20488;-71
2023/08/27 07:19:16;;;;;;;5.67;5.27;;;;;;;17.24;92.25;97389.22;5037373;28;21042;-71
2023/08/27 07:21:44;;;;;;;5.90;5.50;;;;;;;17.41;92.05;97379.00;5029955;28;20544;-71
2023/08/27 07:24:13;;;;;;;5.57;5.20;;;;;;;17.38;92.01;97379.50;5027960;28;20482;-72
2023/08/27 07:26:40;;;;;;;6.10;5.60;;;;;;;17.49;92.37;97374.13;5031681;28;20546;-72
2023/08/27 07:29:07;;;;;;;6.43;5.83;;;;;;;17.57;91.73;97368.13;5038741;28;20507;-72
2023/08/27 07:31:34;;;;;;;5.17;4.70;;;;;;;17.66;92.07;97369.34;5022167;28;20475;-71
2023/08/27 07:34:00;;;;;;;5.17;4.80;;;;;;;17.88;90.95;97372.75;5024481;28;20459;-72
2023/08/27 07:36:27;;;;;;;4.33;4.03;;;;;;;17.86;89.21;97366.72;5025104;28;20452;-72
2023/08/27 07:38:57;;;;;;;3.53;3.23;;;;;;;17.98;89.69;97367.31;5026647;28;20484;-72
2023/08/27 07:41:24;;;;;;;3.80;3.50;;;;;;;18.08;90.00;97372.88;5025702;28;20472;-70
2023/08/27 07:43:51;;;;;;;4.30;4.00;;;;;;;18.07;88.56;97373.97;5027676;28;20478;-72
2023/08/27 07:46:18;;;;;;;4.83;4.37;;;;;;;18.20;88.55;97378.09;5025207;28;20459;-72
2023/08/27 07:48:45;;;;;;;3.70;3.50;;;;;;;18.29;89.04;97378.41;5029547;28;20471;-72
2023/08/27 07:51:11;;;;;;;4.20;3.67;;;;;;;18.41;87.69;97387.25;5033754;28;20543;-72
2023/08/27 07:53:38;;;;;;;4.53;4.03;;;;;;;18.43;88.78;97410.56;5035763;28;20448;-72
2023/08/27 07:56:06;;;;;;;3.70;3.50;;;;;;;18.40;87.37;97421.22;5031893;28;20452;-72
2023/08/27 07:58:33;;;;;;;3.70;3.40;;;;;;;18.49;86.81;97425.09;5031772;28;20456;-71
2023/08/27 08:01:02;;;;;;;3.23;3.03;;;;;;;18.58;86.40;97431.69;5028756;28;20463;-71
2023/08/27 08:03:28;;;;;;;3.77;3.37;;;;;;;18.55;86.16;97425.91;5028180;28;20459;-70
2023/08/27 08:05:54;;;;;;;3.33;3.03;;;;;;;18.38;84.99;97442.59;5036886;28;21006;-70
2023/08/27 08:08:21;;;;;;;3.57;3.27;;;;;;;18.29;86.66;97455.13;5034064;28;20231;-71
2023/08/27 08:10:48;;;;;;;2.80;2.60;;;;;;;18.37;87.35;97455.47;5034143;28;22310;-69
2023/08/27 08:13:17;;;;;;;3.60;3.40;;;;;;;18.29;87.11;97460.63;5030415;28;20474;-70
2023/08/27 08:15:44;;;;;;;3.67;3.37;;;;;;;18.51;86.61;97465.94;5031511;28;21014;-71
2023/08/27 08:18:10;;;;;;;3.20;3.00;;;;;;;18.31;86.46;97469.38;5030545;28;20456;-71
2023/08/27 08:20:40;;;;;;;3.90;3.60;;;;;;;18.00;87.33;97471.94;5024944;28;20867;-72
2023/08/27 08:23:06;;;;;;;2.90;2.70;;;;;;;17.98;87.55;97471.38;5029421;28;20602;-72
2023/08/27 08:25:35;;;;;;;4.60;3.20;;;;;;;18.18;86.80;97481.66;5029996;28;20496;-70
2023/08/27 08:28:02;;;;;;;4.03;3.73;;;;;;;18.22;86.71;97468.22;5030935;28;20802;-71
2023/08/27 08:30:30;;;;;;;3.20;3.00;;;;;;;18.41;85.91;97472.19;5038560;28;20537;-71
2023/08/27 08:32:57;;;;;;;3.30;3.10;;;;;;;18.53;85.99;97470.03;5029499;28;20571;-70
2023/08/27 08:35:24;;;;;;;3.20;3.00;;;;;;;18.74;85.96;97474.56;5034163;28;20459;-71
2023/08/27 08:37:53;;;;;;;4.27;3.87;;;;;;;19.00;84.99;97488.38;5029478;28;20544;-71
2023/08/27 08:40:20;;;;;;;3.90;3.60;;;;;;;19.03;84.32;97485.91;5029718;28;20524;-71
2023/08/27 08:42:51;;;;;;;3.00;2.80;;;;;;;19.20;83.26;97496.63;5035161;28;20488;-71
2023/08/27 08:45:23;;;;;;;3.27;3.00;;;;;;;19.20;82.89;97484.84;5032858;28;20468;-71
2023/08/27 08:47:53;;;;;;;3.33;3.10;;;;;;;19.26;84.21;97467.28;5036410;28;20535;-70
2023/08/27 08:50:22;;;;;;;3.60;3.30;;;;;;;19.31;81.53;97451.66;5032998;28;20458;-71
2023/08/27 08:52:50;;;;;;;3.30;2.93;;;;;;;19.52;81.59;97440.72;5041662;28;20994;-71
2023/08/27 08:55:17;;;;;;;3.70;3.30;;;;;;;19.66;80.66;97436.34;5033081;28;20509;-71
2023/08/27 08:57:47;;;;;;;3.13;2.93;;;;;;;19.50;79.80;97437.38;5034019;28;20456;-71
2023/08/27 09:00:15;;;;;;;2.90;2.70;;;;;;;19.68;77.96;97447.88;5035956;28;20440;-70
2023/08/27 09:02:43;;;;;;;2.93;2.70;;;;;;;19.68;78.21;97456.09;5038273;28;20573;-70
2023/08/27 09:05:11;;;;;;;3.20;2.90;;;;;;;19.46;78.55;97459.94;5035771;28;20489;-70
2023/08/27 09:07:38;;;;;;;3.33;3.13;;;;;;;19.54;79.59;97468.72;5036163;28;20502;-70
2023/08/27 09:10:06;;;;;;;3.60;3.30;;;;;;;19.50;80.00;97468.41;5035007;28;20546;-70
2023/08/27 09:12:35;;;;;;;3.03;2.83;;;;;;;19.61;80.37;97456.38;5039774;28;20524;-71
2023/08/27 09:15:02;;;;;;;3.07;2.87;;;;;;;19.68;79.67;97462.44;5034181;28;20953;-71
2023/08/27 09:17:28;;;;;;;2.53;2.43;;;;;;;19.65;78.96;97462.16;5037382;28;20453;-71
2023/08/27 09:19:55;;;;;;;3.37;3.07;;;;;;;19.66;79.68;97453.63;5038580;28;20457;-71
2023/08/27 09:22:23;;;;;;;3.93;3.53;;;;;;;19.63;80.89;97456.09;5031846;28;20911;-71
2023/08/27 09:24:50;;;;;;;3.57;2.73;;;;;;;19.40;81.21;97461.00;5036482;28;20472;-71
2023/08/27 09:27:17;;;;;;;3.30;3.00;;;;;;;19.41;81.04;97457.16;5029860;28;21039;-70
2023/08/27 09:29:44;;;;;;;3.43;3.23;;;;;;;19.55;81.25;97454.72;5034259;28;20801;-71
2023/08/27 09:32:20;;;;;;;3.80;2.90;;;;;;;19.54;81.95;97441.28;5032038;28;20568;-71
2023/08/27 09:34:47;;;;;;;2.80;2.60;;;;;;;19.81;80.52;97433.59;5034675;28;20495;-71
2023/08/27 09:37:14;;;;;;;3.40;2.73;;;;;;;20.03;78.23;97423.13;5031369;28;20490;-71
2023/08/27 09:39:44;;;;;;;3.20;2.80;;;;;;;20.34;77.86;97423.03;5033957;28;20448;-71
2023/08/27 09:42:11;;;;;;;3.93;2.63;;;;;;;20.76;75.75;97420.69;5032332;28;20482;-71
2023/08/27 09:44:38;;;;;;;3.57;3.23;;;;;;;21.14;73.17;97421.00;5042934;28;20898;-71
2023/08/27 09:47:06;;;;;;;2.90;2.70;;;;;;;21.31;71.02;97415.16;5032254;28;20499;-71
2023/08/27 09:49:33;;;;;;;3.10;2.90;;;;;;;21.71;69.04;97419.50;5033665;28;21326;-71
2023/08/27 09:52:00;;;;;;;2.87;2.67;;;;;;;22.39;68.68;97419.38;5032047;28;20491;-71
2023/08/27 09:54:30;;;;;;;2.60;2.40;;;;;;;22.86;67.25;97414.97;5031386;28;20455;-71
2023/08/27 09:56:59;;;;;;;3.57;2.53;;;;;;;22.93;64.76;97412.66;5031195;28;20456;-71
2023/08/27 09:59:27;;;;;;;3.80;3.27;;;;;;;22.82;63.44;97419.41;5034858;28;20483;-71
2023/08/27 10:01:54;;;;;;;4.70;3.30;;;;;;;22.87;63.33;97417.41;5037212;28;20484;-71
2023/08/27 10:04:22;;;;;;;2.90;2.70;;;;;;;22.72;63.11;97426.72;5043680;28;20570;-71
2023/08/27 10:06:49;;;;;;;3.17;2.80;;;;;;;22.97;63.78;97433.03;5043957;28;20530;-70
2023/08/27 10:09:16;;;;;;;3.17;2.97;;;;;;;22.84;61.93;97425.47;5033416;28;20543;-71
2023/08/27 10:11:45;;;;;;;2.97;2.77;;;;;;;22.71;62.84;97425.06;5035910;28;20909;-71
2023/08/27 10:14:14;;;;;;;3.20;2.80;;;;;;;22.59;63.61;97421.91;5046190;28;20955;-71
2023/08/27 10:16:41;;;;;;;2.83;2.20;;;;;;;22.47;64.54;97427.00;5048723;28;20451;-71
2023/08/27 10:19:09;;;;;;;3.30;2.80;;;;;;;22.73;61.31;97425.59;5034405;28;20466;-71
2023/08/27 10:21:36;;;;;;;2.70;2.50;;;;;;;22.02;65.28;97423.66;5036328;28;20486;-71
2023/08/27 10:24:03;;;;;;;5.80;2.80;;;;;;;22.30;65.18;97418.38;5043827;28;20463;-72
2023/08/27 10:26:31;;;;;;;3.00;2.80;;;;;;;22.57;64.45;97417.78;5031056;28;20499;-71
2023/08/27 10:28:59;;;;;;;2.50;2.30;;;;;;;23.34;62.62;97415.66;5035618;28;20484;-71
2023/08/27 10:31:28;;;;;;;2.57;2.30;;;;;;;23.66;59.28;97410.19;5031027;28;20843;-71
2023/08/27 10:33:55;;;;;;;3.07;2.43;;;;;;;24.38;58.85;97418.00;5041672;28;20454;-72
2023/08/27 10:36:24;;;;;;;3.07;2.57;;;;;;;25.24;53.16;97407.91;5036518;28;20823;-72
2023/08/27 10:38:53;;;;;;;4.30;2.60;;;;;;;26.04;52.16;97403.44;5035674;28;20516;-72
2023/08/27 10:41:23;;;;;;;2.87;2.30;;;;;;;26.37;51.99;97388.09;5040151;28;20558;-72
2023/08/27 10:43:50;;;;;;;3.03;2.70;;;;;;;27.07;49.25;97397.47;5049204;28;20451;-72
2023/08/27 10:46:18;;;;;;;3.87;2.67;;;;;;;27.47;47.22;97394.56;5030932;28;20571;-72
2023/08/27 10:48:50;;;;;;;2.60;2.37;;;;;;;27.71;46.62;97406.00;5035023;28;20514;-72
2023/08/27 10:51:18;;;;;;;5.20;2.87;;;;;;;26.70;47.12;97384.94;5026716;28;20550;-72
2023/08/27 10:53:58;;;;;;;2.10;1.93;;;;;;;25.91;50.95;97393.25;5049059;28;20448;-72
2023/08/27 10:56:26;;;;;;;2.30;2.03;;;;;;;25.87;50.23;97398.63;5036487;28;20495;-72
2023/08/27 10:58:53;;;;;;;3.20;2.90;;;;;;;25.10;50.85;97401.56;5037795;28;20486;-72
2023/08/27 11:01:20;;;;;;;3.00;2.70;;;;;;;24.97;51.84;97403.25;5029794;28;21097;-72
2023/08/27 11:03:59;;;;;;;4.30;2.60;;;;;;;24.52;53.61;97406.94;5024568;28;20539;-72
2023/08/27 11:06:34;;;;;;;3.67;2.40;;;;;;;24.01;56.02;97408.75;5033244;28;20490;-72
2023/08/27 11:09:01;;;;;;;3.50;2.30;;;;;;;23.91;54.97;97403.38;5028138;28;20456;-71
2023/08/27 11:11:28;;;;;;;3.70;2.10;;;;;;;23.97;53.75;97413.22;5030810;28;20494;-71
2023/08/27 11:14:08;;;;;;;2.60;2.40;;;;;;;22.82;56.13;97402.88;5032273;28;20537;-72
2023/08/27 11:16:44;;;;;;;2.10;2.00;;;;;;;22.54;58.30;97415.63;5026249;28;20470;-72
2023/08/27 11:19:12;;;;;;;3.10;2.60;;;;;;;22.61;59.70;97419.66;5032432;28;20456;-72
2023/08/27 11:21:46;;;;;;;2.60;2.40;;;;;;;22.88;59.50;97418.25;5030921;28;20482;-72
2023/08/27 11:24:13;;;;;;;3.57;2.43;;;;;;;23.31;57.35;97414.31;5030351;28;20455;-71
2023/08/27 11:26:41;;;;;;;2.30;2.10;;;;;;;23.48;56.40;97408.22;5029564;28;20575;-72
2023/08/27 11:29:08;;;;;;;3.77;2.60;;;;;;;23.94;54.80;97408.31;5034203;28;20940;-73